createdAt,value
2018-05-03T00:00:26.950Z,11.19
2018-05-03T00:01:26.952Z,11.19
2018-05-03T00:02:26.921Z,11.09
2018-05-03T00:03:26.924Z,11.02
2018-05-03T00:04:26.906Z,11.07
2018-05-03T00:05:26.937Z,11.07
2018-05-03T00:06:26.882Z,11.04
2018-05-03T00:07:26.870Z,11.03
2018-05-03T00:08:26.851Z,10.92
2018-05-03T00:09:26.859Z,10.94
2018-05-03T00:10:26.856Z,11.00
2018-05-03T00:11:26.829Z,11.00
2018-05-03T00:12:26.837Z,11.11
2018-05-03T00:13:26.782Z,11.14
2018-05-03T00:14:26.776Z,11.04
2018-05-03T00:15:26.772Z,11.10
2018-05-03T00:16:26.790Z,11.15
2018-05-03T00:17:26.750Z,11.15
2018-05-03T00:18:26.741Z,11.18
2018-05-03T00:19:26.712Z,11.18
2018-05-03T00:20:26.706Z,11.22
2018-05-03T00:21:26.695Z,11.25
2018-05-03T00:22:26.681Z,11.21
2018-05-03T00:23:26.669Z,11.15
2018-05-03T00:24:26.655Z,11.18
2018-05-03T00:25:26.639Z,11.21
2018-05-03T00:26:26.613Z,11.33
2018-05-03T00:27:26.614Z,11.29
2018-05-03T00:28:26.651Z,11.24
2018-05-03T00:29:26.577Z,11.25
2018-05-03T00:30:26.597Z,11.27
2018-05-03T00:31:26.566Z,11.17
2018-05-03T00:32:26.555Z,11.18
2018-05-03T00:33:26.543Z,11.14
2018-05-03T00:34:26.560Z,11.07
2018-05-03T00:35:26.522Z,11.03
2018-05-03T00:36:26.502Z,11.02
2018-05-03T00:37:26.476Z,11.04
2018-05-03T00:38:26.484Z,11.14
2018-05-03T00:39:26.897Z,11.00
2018-05-03T00:40:26.448Z,11.07
2018-05-03T00:41:26.443Z,11.04
2018-05-03T00:42:26.431Z,11.03
2018-05-03T00:43:26.409Z,11.07
2018-05-03T00:44:26.405Z,11.09
2018-05-03T00:45:26.390Z,11.14
2018-05-03T00:46:26.498Z,11.15
2018-05-03T00:47:26.346Z,11.04
2018-05-03T00:48:26.344Z,11.00
2018-05-03T00:49:26.328Z,11.03
2018-05-03T00:50:26.326Z,11.00
2018-05-03T00:51:26.311Z,10.91
2018-05-03T00:52:26.314Z,10.96
2018-05-03T00:53:26.283Z,10.91
2018-05-03T00:54:26.265Z,10.88
2018-05-03T00:55:26.259Z,10.88
2018-05-03T00:56:26.269Z,10.82
2018-05-03T00:57:26.371Z,10.99
2018-05-03T00:58:26.214Z,10.94
2018-05-03T00:59:26.213Z,10.91
2018-05-03T01:00:26.188Z,10.94
2018-05-03T01:01:26.181Z,10.94
2018-05-03T01:02:26.173Z,10.96
2018-05-03T01:03:26.188Z,11.03
2018-05-03T01:04:26.149Z,10.94
2018-05-03T01:05:26.150Z,10.97
2018-05-03T01:06:26.118Z,11.06
2018-05-03T01:07:26.108Z,11.00
2018-05-03T01:08:26.248Z,10.89
2018-05-03T01:09:26.074Z,10.82
2018-05-03T01:10:26.071Z,10.79
2018-05-03T01:11:26.057Z,10.61
2018-05-03T01:12:26.047Z,10.60
2018-05-03T01:13:26.031Z,10.68
2018-05-03T01:14:26.050Z,10.59
2018-05-03T01:15:26.043Z,10.59
2018-05-03T01:16:25.992Z,10.44
2018-05-03T01:17:25.976Z,10.52
2018-05-03T01:18:25.966Z,10.52
2018-05-03T01:19:25.942Z,10.55
2018-05-03T01:20:25.989Z,10.55
2018-05-03T01:21:25.936Z,10.56
2018-05-03T01:22:25.907Z,10.63
2018-05-03T01:23:25.891Z,10.63
2018-05-03T01:24:25.877Z,10.56
2018-05-03T01:25:25.878Z,10.56
2018-05-03T01:26:25.862Z,10.55
2018-05-03T01:27:25.855Z,10.60
2018-05-03T01:28:25.911Z,10.55
2018-05-03T01:29:25.831Z,10.59
2018-05-03T01:30:25.809Z,10.56
2018-05-03T01:31:25.796Z,10.60
2018-05-03T01:32:25.775Z,10.60
2018-05-03T01:33:25.782Z,10.59
2018-05-03T01:34:25.771Z,10.63
2018-05-03T01:35:25.737Z,10.59
2018-05-03T01:36:25.731Z,10.60
2018-05-03T01:37:25.719Z,10.64
2018-05-03T01:38:25.702Z,10.55
2018-05-03T01:39:25.824Z,10.55
2018-05-03T01:40:25.674Z,10.55
2018-05-03T01:41:25.659Z,10.66
2018-05-03T01:42:25.644Z,10.70
2018-05-03T01:43:25.633Z,10.61
2018-05-03T01:44:25.635Z,10.67
2018-05-03T01:45:25.629Z,10.66
2018-05-03T01:46:25.601Z,10.55
2018-05-03T01:47:25.594Z,10.55
2018-05-03T01:48:25.614Z,10.66
2018-05-03T01:49:25.557Z,10.60
2018-05-03T01:50:25.535Z,10.60
2018-05-03T01:51:25.534Z,10.61
2018-05-03T01:52:25.524Z,10.61
2018-05-03T01:53:25.495Z,10.61
2018-05-03T01:54:25.525Z,10.59
2018-05-03T01:55:25.476Z,10.60
2018-05-03T01:56:25.483Z,10.60
2018-05-03T01:57:25.460Z,10.56
2018-05-03T01:58:25.443Z,10.56
2018-05-03T01:59:25.425Z,10.63
2018-05-03T02:00:25.431Z,10.61
2018-05-03T02:01:25.443Z,10.55
2018-05-03T02:02:25.399Z,10.52
2018-05-03T02:03:25.418Z,10.66
2018-05-03T02:04:25.358Z,10.52
2018-05-03T02:05:25.350Z,10.53
2018-05-03T02:06:25.336Z,10.38
2018-05-03T02:07:25.332Z,10.36
2018-05-03T02:08:25.627Z,10.36
2018-05-03T02:09:25.298Z,10.32
2018-05-03T02:10:25.272Z,10.30
2018-05-03T02:11:25.265Z,10.38
2018-05-03T02:12:25.267Z,10.44
2018-05-03T02:13:25.239Z,10.40
2018-05-03T02:14:25.230Z,10.38
2018-05-03T02:15:25.217Z,10.38
2018-05-03T02:16:25.198Z,10.33
2018-05-03T02:17:25.192Z,10.32
2018-05-03T02:18:25.171Z,10.25
2018-05-03T02:19:25.210Z,10.12
2018-05-03T02:20:25.150Z,10.23
2018-05-03T02:21:25.138Z,10.20
2018-05-03T02:22:25.132Z,10.29
2018-05-03T02:23:25.105Z,10.20
2018-05-03T02:24:25.180Z,10.30
2018-05-03T02:25:25.077Z,10.25
2018-05-03T02:26:25.097Z,10.20
2018-05-03T02:27:25.060Z,10.20
2018-05-03T02:28:25.059Z,10.29
2018-05-03T02:29:25.020Z,10.26
2018-05-03T02:30:25.017Z,10.20
2018-05-03T02:31:25.366Z,10.23
2018-05-03T02:32:25.064Z,10.27
2018-05-03T02:33:25.012Z,10.23
2018-05-03T02:34:24.963Z,10.25
2018-05-03T02:35:24.954Z,10.23
2018-05-03T02:36:24.932Z,10.27
2018-05-03T02:37:25.021Z,10.25
2018-05-03T02:38:24.901Z,10.14
2018-05-03T02:39:24.897Z,10.15
2018-05-03T02:40:24.878Z,10.15
2018-05-03T02:41:24.854Z,10.12
2018-05-03T02:42:24.911Z,10.01
2018-05-03T02:43:24.846Z,10.07
2018-05-03T02:44:24.824Z,9.97
2018-05-03T02:45:24.819Z,9.94
2018-05-03T02:46:24.800Z,9.90
2018-05-03T02:47:24.798Z,9.97
2018-05-03T02:48:24.792Z,10.11
2018-05-03T02:49:24.766Z,10.08
2018-05-03T02:50:24.750Z,10.08
2018-05-03T02:51:24.746Z,10.18
2018-05-03T02:52:24.724Z,10.12
2018-05-03T02:53:24.775Z,10.18
2018-05-03T02:54:24.700Z,10.15
2018-05-03T02:55:24.683Z,10.11
2018-05-03T02:56:24.676Z,10.20
2018-05-03T02:57:24.661Z,10.11
2018-05-03T02:58:24.641Z,10.01
2018-05-03T02:59:24.664Z,9.97
2018-05-03T03:00:24.608Z,10.09
2018-05-03T03:01:24.597Z,10.04
2018-05-03T03:02:24.605Z,10.02
2018-05-03T03:03:25.012Z,10.12
2018-05-03T03:04:24.567Z,10.11
2018-05-03T03:05:24.542Z,10.14
2018-05-03T03:06:24.537Z,10.20
2018-05-03T03:07:24.533Z,10.14
2018-05-03T03:08:24.503Z,10.17
2018-05-03T03:09:24.501Z,10.22
2018-05-03T03:10:24.529Z,10.12
2018-05-03T03:11:24.470Z,10.17
2018-05-03T03:12:24.457Z,10.15
2018-05-03T03:13:24.455Z,10.08
2018-05-03T03:14:24.419Z,10.11
2018-05-03T03:15:24.399Z,9.93
2018-05-03T03:16:24.529Z,9.89
2018-05-03T03:17:24.377Z,9.91
2018-05-03T03:18:24.373Z,9.91
2018-05-03T03:19:24.370Z,9.97
2018-05-03T03:20:24.363Z,9.90
2018-05-03T03:21:24.321Z,9.96
2018-05-03T03:22:24.359Z,9.91
2018-05-03T03:23:24.300Z,9.94
2018-05-03T03:24:24.295Z,9.83
2018-05-03T03:25:24.266Z,9.90
2018-05-03T03:26:24.298Z,9.90
2018-05-03T03:27:24.245Z,9.78
2018-05-03T03:28:24.282Z,9.87
2018-05-03T03:29:24.223Z,9.81
2018-05-03T03:30:24.201Z,9.78
2018-05-03T03:31:24.524Z,9.79
2018-05-03T03:32:24.177Z,9.84
2018-05-03T03:33:24.158Z,9.86
2018-05-03T03:34:24.145Z,9.94
2018-05-03T03:35:24.144Z,9.94
2018-05-03T03:36:24.148Z,9.90
2018-05-03T03:37:24.157Z,9.91
2018-05-03T03:38:24.098Z,9.89
2018-05-03T03:39:24.079Z,9.93
2018-05-03T03:40:24.069Z,9.89
2018-05-03T03:41:24.060Z,9.89
2018-05-03T03:42:24.044Z,9.84
2018-05-03T03:43:24.044Z,9.87
2018-05-03T03:44:23.999Z,9.86
2018-05-03T03:45:24.001Z,9.86
2018-05-03T03:46:23.984Z,9.84
2018-05-03T03:47:23.970Z,9.87
2018-05-03T03:48:23.958Z,9.75
2018-05-03T03:49:23.955Z,9.86
2018-05-03T03:50:23.921Z,9.76
2018-05-03T03:51:23.928Z,9.78
2018-05-03T03:52:23.900Z,9.83
2018-05-03T03:53:23.892Z,9.90
2018-05-03T03:54:23.867Z,9.94
2018-05-03T03:55:23.863Z,9.89
2018-05-03T03:56:23.842Z,10.08
2018-05-03T03:57:23.833Z,9.99
2018-05-03T03:58:23.853Z,10.02
2018-05-03T03:59:23.801Z,10.02
2018-05-03T04:00:23.801Z,10.05
2018-05-03T04:01:23.773Z,9.96
2018-05-03T04:02:23.764Z,10.04
2018-05-03T04:03:23.763Z,10.09
2018-05-03T04:04:23.739Z,10.11
2018-05-03T04:05:23.719Z,10.07
2018-05-03T04:06:23.713Z,10.09
2018-05-03T04:07:23.705Z,10.04
2018-05-03T04:08:23.716Z,10.02
2018-05-03T04:09:23.661Z,9.97
2018-05-03T04:10:23.654Z,10.23
2018-05-03T04:11:23.996Z,10.18
2018-05-03T04:12:23.618Z,10.17
2018-05-03T04:13:23.637Z,10.20
2018-05-03T04:14:23.617Z,10.15
2018-05-03T04:15:23.582Z,10.29
2018-05-03T04:16:23.579Z,10.30
2018-05-03T04:17:23.589Z,10.23
2018-05-03T04:18:23.544Z,10.34
2018-05-03T04:19:23.527Z,10.30
2018-05-03T04:20:23.518Z,10.27
2018-05-03T04:21:23.497Z,10.34
2018-05-03T04:22:23.559Z,10.33
2018-05-03T04:23:23.520Z,10.38
2018-05-03T04:24:23.471Z,10.38
2018-05-03T04:25:23.461Z,10.34
2018-05-03T04:26:23.437Z,10.38
2018-05-03T04:27:23.409Z,10.34
2018-05-03T04:28:23.447Z,10.33
2018-05-03T04:29:23.411Z,10.29
2018-05-03T04:30:23.371Z,10.23
2018-05-03T04:31:23.364Z,10.27
2018-05-03T04:32:23.346Z,10.27
2018-05-03T04:33:23.342Z,10.22
2018-05-03T04:34:23.338Z,10.22
2018-05-03T04:35:23.316Z,10.25
2018-05-03T04:36:23.345Z,10.25
2018-05-03T04:37:23.285Z,10.26
2018-05-03T04:38:23.271Z,10.26
2018-05-03T04:39:23.275Z,10.30
2018-05-03T04:40:23.256Z,10.34
2018-05-03T04:41:23.269Z,10.32
2018-05-03T04:42:23.219Z,10.32
2018-05-03T04:43:23.207Z,10.32
2018-05-03T04:44:23.190Z,10.33
2018-05-03T04:45:23.183Z,10.38
2018-05-03T04:46:23.220Z,10.42
2018-05-03T04:47:23.176Z,10.42
2018-05-03T04:48:24.140Z,10.38
2018-05-03T04:49:23.190Z,10.32
2018-05-03T04:50:23.148Z,10.38
2018-05-03T04:51:23.192Z,10.36
2018-05-03T04:52:23.100Z,10.40
2018-05-03T04:53:23.097Z,10.42
2018-05-03T04:54:23.074Z,10.47
2018-05-03T04:55:23.049Z,10.53
2018-05-03T04:56:23.045Z,10.48
2018-05-03T04:57:23.204Z,10.61
2018-05-03T04:58:23.007Z,10.56
2018-05-03T04:59:23.000Z,10.56
2018-05-03T05:00:23.020Z,10.60
2018-05-03T05:01:22.977Z,10.60
2018-05-03T05:02:22.951Z,10.63
2018-05-03T05:03:22.947Z,10.59
2018-05-03T05:04:22.920Z,10.61
2018-05-03T05:05:22.960Z,10.59
2018-05-03T05:06:23.090Z,10.66
2018-05-03T05:07:22.879Z,10.56
2018-05-03T05:08:22.886Z,10.56
2018-05-03T05:09:22.868Z,10.56
2018-05-03T05:10:22.847Z,10.61
2018-05-03T05:11:22.834Z,10.66
2018-05-03T05:12:22.827Z,10.60
2018-05-03T05:13:22.829Z,10.78
2018-05-03T05:14:22.794Z,10.84
2018-05-03T05:15:22.822Z,10.68
2018-05-03T05:16:22.770Z,10.73
2018-05-03T05:17:22.763Z,10.76
2018-05-03T05:18:22.767Z,10.82
2018-05-03T05:19:22.732Z,10.78
2018-05-03T05:20:22.712Z,10.81
2018-05-03T05:21:22.744Z,10.82
2018-05-03T05:22:22.749Z,10.81
2018-05-03T05:23:22.676Z,10.81
2018-05-03T05:24:22.663Z,10.68
2018-05-03T05:25:22.773Z,10.79
2018-05-03T05:26:22.699Z,10.89
2018-05-03T05:27:22.631Z,10.89
2018-05-03T05:28:22.611Z,10.82
2018-05-03T05:29:22.603Z,10.91
2018-05-03T05:30:22.595Z,10.99
2018-05-03T05:31:22.584Z,10.99
2018-05-03T05:32:22.712Z,10.91
2018-05-03T05:33:22.558Z,10.97
2018-05-03T05:34:22.536Z,10.91
2018-05-03T05:35:22.524Z,10.91
2018-05-03T05:36:22.697Z,10.94
2018-05-03T05:37:22.492Z,10.88
2018-05-03T05:38:22.613Z,10.89
2018-05-03T05:39:22.497Z,10.92
2018-05-03T05:40:22.456Z,10.89
2018-05-03T05:41:22.686Z,10.97
2018-05-03T05:42:22.428Z,10.96
2018-05-03T05:43:22.420Z,10.99
2018-05-03T05:44:22.459Z,10.92
2018-05-03T05:45:22.420Z,10.92
2018-05-03T05:46:22.388Z,10.96
2018-05-03T05:47:22.362Z,10.89
2018-05-03T05:48:22.352Z,10.82
2018-05-03T05:49:22.364Z,10.89
2018-05-03T05:50:22.332Z,10.91
2018-05-03T05:51:22.317Z,10.85
2018-05-03T05:52:22.289Z,10.89
2018-05-03T05:53:22.301Z,10.94
2018-05-03T05:54:22.540Z,10.88
2018-05-03T05:55:22.269Z,10.92
2018-05-03T05:56:22.255Z,10.92
2018-05-03T05:57:22.229Z,10.94
2018-05-03T05:58:22.222Z,10.91
2018-05-03T05:59:22.209Z,10.88
2018-05-03T06:00:22.202Z,10.78
2018-05-03T06:01:22.209Z,10.79
2018-05-03T06:02:22.167Z,10.74
2018-05-03T06:03:22.285Z,10.84
2018-05-03T06:04:22.212Z,10.85
2018-05-03T06:05:22.135Z,10.85
2018-05-03T06:06:22.340Z,10.88
2018-05-03T06:07:22.116Z,10.86
2018-05-03T06:08:22.147Z,10.86
2018-05-03T06:09:22.287Z,10.88
2018-05-03T06:10:22.088Z,10.78
2018-05-03T06:11:22.220Z,10.81
2018-05-03T06:12:22.139Z,10.79
2018-05-03T06:13:22.095Z,10.79
2018-05-03T06:14:22.028Z,10.81
2018-05-03T06:15:22.008Z,10.89
2018-05-03T06:16:22.518Z,10.74
2018-05-03T06:17:21.981Z,10.78
2018-05-03T06:18:21.981Z,10.79
2018-05-03T06:19:21.982Z,10.85
2018-05-03T06:20:21.937Z,10.73
2018-05-03T06:21:21.923Z,10.81
2018-05-03T06:22:21.927Z,10.84
2018-05-03T06:23:21.903Z,10.86
2018-05-03T06:24:21.903Z,10.85
2018-05-03T06:25:21.879Z,10.81
2018-05-03T06:26:21.868Z,10.86
2018-05-03T06:27:21.851Z,10.89
2018-05-03T06:28:21.833Z,10.84
2018-05-03T06:29:21.866Z,10.91
2018-05-03T06:30:21.841Z,10.88
2018-05-03T06:31:21.802Z,10.85
2018-05-03T06:32:21.797Z,10.79
2018-05-03T06:33:21.799Z,10.89
2018-05-03T06:34:21.755Z,10.97
2018-05-03T06:35:22.126Z,11.02
2018-05-03T06:36:21.748Z,11.07
2018-05-03T06:37:21.727Z,11.11
2018-05-03T06:38:21.706Z,11.14
2018-05-03T06:39:21.707Z,11.17
2018-05-03T06:40:21.736Z,11.15
2018-05-03T06:41:21.683Z,11.21
2018-05-03T06:42:21.664Z,11.17
2018-05-03T06:43:21.692Z,11.21
2018-05-03T06:44:21.676Z,11.35
2018-05-03T06:45:21.644Z,11.25
2018-05-03T06:46:21.609Z,11.33
2018-05-03T06:47:21.597Z,11.22
2018-05-03T06:48:21.584Z,11.17
2018-05-03T06:49:21.578Z,11.15
2018-05-03T06:50:21.571Z,11.10
2018-05-03T06:51:21.593Z,11.09
2018-05-03T06:52:21.669Z,11.09
2018-05-03T06:53:21.523Z,11.15
2018-05-03T06:54:21.519Z,11.28
2018-05-03T06:55:21.513Z,11.29
2018-05-03T06:56:21.489Z,11.39
2018-05-03T06:57:21.561Z,11.42
2018-05-03T06:58:21.463Z,11.46
2018-05-03T06:59:21.458Z,11.49
2018-05-03T07:00:21.447Z,11.43
2018-05-03T07:01:21.432Z,11.43
2018-05-03T07:02:21.421Z,11.44
2018-05-03T07:03:21.429Z,11.40
2018-05-03T07:04:21.566Z,11.37
2018-05-03T07:05:21.363Z,11.39
2018-05-03T07:06:21.569Z,11.39
2018-05-03T07:07:21.358Z,11.32
2018-05-03T07:08:21.347Z,11.35
2018-05-03T07:09:21.330Z,11.35
2018-05-03T07:10:21.346Z,11.40
2018-05-03T07:11:21.299Z,11.47
2018-05-03T07:12:21.305Z,11.57
2018-05-03T07:13:21.277Z,11.61
2018-05-03T07:14:21.256Z,11.60
2018-05-03T07:15:21.407Z,11.60
2018-05-03T07:16:21.246Z,11.62
2018-05-03T07:17:21.224Z,11.69
2018-05-03T07:18:21.214Z,11.72
2018-05-03T07:19:21.196Z,11.82
2018-05-03T07:20:21.200Z,11.69
2018-05-03T07:21:21.196Z,11.75
2018-05-03T07:22:21.172Z,11.82
2018-05-03T07:23:21.146Z,11.94
2018-05-03T07:24:21.137Z,11.88
2018-05-03T07:25:21.141Z,11.82
2018-05-03T07:26:21.491Z,11.85
2018-05-03T07:27:21.104Z,11.82
2018-05-03T07:28:21.141Z,11.85
2018-05-03T07:29:21.117Z,11.82
2018-05-03T07:30:21.065Z,11.79
2018-05-03T07:31:21.063Z,11.78
2018-05-03T07:32:21.217Z,11.70
2018-05-03T07:33:21.048Z,11.73
2018-05-03T07:34:21.021Z,11.80
2018-05-03T07:35:21.024Z,11.79
2018-05-03T07:36:21.997Z,11.80
2018-05-03T07:37:20.985Z,11.78
2018-05-03T07:38:20.981Z,11.86
2018-05-03T07:39:20.967Z,11.95
2018-05-03T07:40:21.536Z,11.86
2018-05-03T07:41:20.946Z,11.88
2018-05-03T07:42:20.927Z,12.02
2018-05-03T07:43:20.943Z,11.94
2018-05-03T07:44:20.910Z,12.01
2018-05-03T07:45:20.949Z,11.96
2018-05-03T07:46:20.874Z,11.96
2018-05-03T07:47:20.882Z,12.12
2018-05-03T07:48:20.869Z,12.17
2018-05-03T07:49:20.853Z,12.29
2018-05-03T07:50:20.845Z,12.29
2018-05-03T07:51:20.825Z,12.32
2018-05-03T07:52:20.804Z,12.29
2018-05-03T07:53:20.796Z,12.34
2018-05-03T07:54:20.787Z,12.37
2018-05-03T07:55:20.774Z,12.35
2018-05-03T07:56:20.794Z,12.27
2018-05-03T07:57:21.537Z,12.37
2018-05-03T07:58:20.741Z,12.28
2018-05-03T07:59:20.765Z,12.37
2018-05-03T08:00:20.714Z,12.45
2018-05-03T08:01:20.734Z,12.39
2018-05-03T08:02:20.724Z,12.53
2018-05-03T08:03:20.683Z,12.39
2018-05-03T08:04:20.671Z,12.39
2018-05-03T08:05:20.679Z,12.38
2018-05-03T08:06:20.656Z,12.37
2018-05-03T08:07:20.672Z,12.46
2018-05-03T08:08:20.636Z,12.37
2018-05-03T08:09:20.614Z,12.41
2018-05-03T08:10:20.612Z,12.38
2018-05-03T08:11:20.592Z,12.42
2018-05-03T08:12:20.615Z,12.35
2018-05-03T08:13:20.576Z,12.37
2018-05-03T08:14:20.605Z,12.31
2018-05-03T08:15:20.577Z,12.31
2018-05-03T08:16:20.547Z,12.24
2018-05-03T08:17:20.545Z,12.31
2018-05-03T08:18:20.516Z,12.35
2018-05-03T08:19:20.535Z,12.28
2018-05-03T08:20:20.489Z,12.38
2018-05-03T08:21:20.479Z,12.37
2018-05-03T08:22:20.555Z,12.32
2018-05-03T08:23:20.449Z,12.31
2018-05-03T08:24:20.602Z,12.45
2018-05-03T08:25:20.638Z,12.42
2018-05-03T08:26:20.417Z,12.39
2018-05-03T08:27:20.402Z,12.53
2018-05-03T08:28:20.407Z,12.41
2018-05-03T08:29:20.400Z,12.47
2018-05-03T08:30:20.422Z,12.46
2018-05-03T08:31:20.376Z,12.39
2018-05-03T08:32:20.349Z,12.54
2018-05-03T08:33:20.344Z,12.52
2018-05-03T08:34:20.685Z,12.56
2018-05-03T08:35:20.322Z,12.56
2018-05-03T08:36:20.382Z,12.57
2018-05-03T08:37:20.304Z,12.56
2018-05-03T08:38:20.287Z,12.59
2018-05-03T08:39:20.295Z,12.52
2018-05-03T08:40:20.270Z,12.54
2018-05-03T08:41:20.289Z,12.59
2018-05-03T08:42:20.240Z,12.62
2018-05-03T08:43:20.243Z,12.62
2018-05-03T08:44:20.229Z,12.72
2018-05-03T08:45:20.253Z,12.72
2018-05-03T08:46:20.211Z,12.74
2018-05-03T08:47:20.196Z,12.74
2018-05-03T08:48:20.172Z,12.68
2018-05-03T08:49:20.176Z,12.70
2018-05-03T08:50:20.175Z,12.90
2018-05-03T08:51:20.146Z,12.96
2018-05-03T08:52:20.239Z,13.00
2018-05-03T08:53:20.141Z,12.90
2018-05-03T08:54:20.112Z,13.08
2018-05-03T08:55:20.120Z,13.23
2018-05-03T08:56:20.097Z,13.30
2018-05-03T08:57:20.095Z,13.41
2018-05-03T08:58:20.100Z,13.51
2018-05-03T08:59:20.073Z,13.52
2018-05-03T09:00:20.053Z,13.46
2018-05-03T09:01:20.113Z,13.51
2018-05-03T09:02:20.041Z,13.46
2018-05-03T09:03:20.074Z,13.44
2018-05-03T09:04:20.026Z,13.44
2018-05-03T09:05:20.014Z,13.51
2018-05-03T09:06:20.063Z,13.44
2018-05-03T09:07:20.006Z,13.54
2018-05-03T09:08:20.127Z,13.54
2018-05-03T09:09:19.986Z,13.44
2018-05-03T09:10:19.952Z,13.45
2018-05-03T09:11:19.951Z,13.49
2018-05-03T09:12:19.933Z,13.48
2018-05-03T09:13:19.924Z,13.49
2018-05-03T09:14:19.928Z,13.51
2018-05-03T09:15:19.912Z,13.44
2018-05-03T09:16:20.234Z,13.46
2018-05-03T09:17:19.901Z,13.41
2018-05-03T09:18:19.902Z,13.42
2018-05-03T09:19:19.876Z,13.36
2018-05-03T09:20:19.865Z,13.44
2018-05-03T09:21:19.863Z,13.41
2018-05-03T09:22:19.922Z,13.33
2018-05-03T09:23:19.842Z,13.32
2018-05-03T09:24:19.835Z,13.32
2018-05-03T09:25:19.827Z,13.26
2018-05-03T09:26:19.816Z,13.29
2018-05-03T09:27:19.821Z,13.28
2018-05-03T09:28:19.831Z,13.33
2018-05-03T09:29:19.782Z,13.51
2018-05-03T09:30:19.789Z,13.71
2018-05-03T09:31:19.759Z,13.67
2018-05-03T09:32:19.796Z,13.77
2018-05-03T09:33:19.769Z,13.88
2018-05-03T09:34:19.739Z,14.03
2018-05-03T09:35:19.738Z,13.99
2018-05-03T09:36:19.732Z,14.02
2018-05-03T09:37:19.708Z,14.00
2018-05-03T09:38:19.754Z,14.14
2018-05-03T09:39:19.706Z,14.10
2018-05-03T09:40:19.725Z,14.15
2018-05-03T09:41:19.675Z,14.32
2018-05-03T09:42:19.684Z,14.35
2018-05-03T09:43:19.699Z,14.37
2018-05-03T09:44:19.674Z,14.43
2018-05-03T09:45:19.664Z,14.55
2018-05-03T09:46:19.654Z,14.51
2018-05-03T09:47:19.636Z,14.45
2018-05-03T09:48:19.691Z,14.32
2018-05-03T09:49:19.633Z,14.21
2018-05-03T09:50:19.660Z,14.20
2018-05-03T09:51:19.629Z,14.24
2018-05-03T09:52:19.659Z,14.15
2018-05-03T09:53:19.616Z,14.10
2018-05-03T09:54:19.625Z,14.17
2018-05-03T09:55:19.639Z,14.24
2018-05-03T09:56:19.668Z,14.22
2018-05-03T09:57:19.590Z,14.20
2018-05-03T09:58:19.589Z,14.24
2018-05-03T09:59:19.629Z,14.21
2018-05-03T10:00:19.610Z,14.15
2018-05-03T10:01:19.586Z,14.20
2018-05-03T10:02:19.556Z,14.18
2018-05-03T10:03:19.579Z,14.28
2018-05-03T10:04:19.558Z,14.36
2018-05-03T10:05:19.553Z,14.55
2018-05-03T10:06:19.577Z,14.70
2018-05-03T10:07:19.595Z,14.64
2018-05-03T10:08:19.536Z,14.73
2018-05-03T10:09:19.527Z,14.73
2018-05-03T10:10:19.526Z,14.78
2018-05-03T10:11:19.528Z,15.02
2018-05-03T10:12:19.554Z,15.11
2018-05-03T10:13:19.589Z,15.19
2018-05-03T10:14:19.515Z,15.20
2018-05-03T10:15:19.503Z,15.36
2018-05-03T10:16:19.497Z,15.31
2018-05-03T10:17:19.546Z,15.20
2018-05-03T10:18:19.486Z,14.96
2018-05-03T10:19:19.489Z,14.95
2018-05-03T10:20:19.480Z,14.95
2018-05-03T10:21:19.490Z,14.75
2018-05-03T10:22:19.465Z,14.69
2018-05-03T10:23:19.476Z,14.70
2018-05-03T10:24:19.593Z,14.68
2018-05-03T10:25:19.463Z,14.75
2018-05-03T10:26:19.681Z,14.86
2018-05-03T10:27:19.455Z,14.91
2018-05-03T10:28:19.458Z,15.02
2018-05-03T10:29:19.448Z,15.02
2018-05-03T10:30:19.550Z,15.10
2018-05-03T10:31:19.441Z,15.16
2018-05-03T10:32:19.444Z,15.16
2018-05-03T10:33:19.417Z,15.07
2018-05-03T10:34:19.415Z,15.16
2018-05-03T10:35:19.435Z,15.14
2018-05-03T10:36:19.454Z,15.01
2018-05-03T10:37:19.398Z,14.94
2018-05-03T10:38:19.414Z,15.01
2018-05-03T10:39:19.415Z,14.86
2018-05-03T10:40:19.442Z,14.95
2018-05-03T10:41:19.384Z,14.98
2018-05-03T10:42:19.431Z,15.02
2018-05-03T10:43:19.404Z,15.10
2018-05-03T10:44:19.359Z,15.02
2018-05-03T10:45:19.355Z,15.17
2018-05-03T10:46:19.353Z,15.20
2018-05-03T10:47:19.372Z,15.03
2018-05-03T10:48:19.327Z,14.98
2018-05-03T10:49:19.327Z,14.83
2018-05-03T10:50:19.319Z,14.83
2018-05-03T10:51:20.156Z,14.83
2018-05-03T10:52:19.342Z,15.07
2018-05-03T10:53:19.327Z,15.23
2018-05-03T10:54:19.311Z,15.32
2018-05-03T10:55:19.282Z,15.29
2018-05-03T10:56:19.286Z,15.19
2018-05-03T10:57:19.404Z,15.17
2018-05-03T10:58:19.275Z,15.10
2018-05-03T10:59:19.280Z,14.99
2018-05-03T11:00:19.258Z,14.88
2018-05-03T11:01:19.237Z,14.84
2018-05-03T11:02:19.258Z,14.92
2018-05-03T11:03:19.367Z,14.92
2018-05-03T11:04:19.230Z,14.84
2018-05-03T11:05:19.272Z,14.86
2018-05-03T11:06:19.222Z,14.99
2018-05-03T11:07:19.218Z,14.96
2018-05-03T11:08:19.206Z,15.10
2018-05-03T11:09:19.334Z,15.25
2018-05-03T11:10:19.184Z,15.35
2018-05-03T11:11:19.159Z,15.38
2018-05-03T11:12:19.157Z,15.50
2018-05-03T11:13:19.153Z,15.59
2018-05-03T11:14:19.149Z,15.68
2018-05-03T11:15:20.121Z,15.64
2018-05-03T11:16:19.133Z,15.59
2018-05-03T11:17:19.130Z,15.54
2018-05-03T11:18:19.126Z,15.62
2018-05-03T11:19:19.121Z,15.65
2018-05-03T11:20:19.148Z,15.72
2018-05-03T11:21:19.108Z,15.80
2018-05-03T11:22:19.094Z,15.89
2018-05-03T11:23:19.096Z,16.12
2018-05-03T11:24:19.100Z,16.12
2018-05-03T11:25:19.118Z,15.97
2018-05-03T11:26:19.098Z,16.11
2018-05-03T11:27:19.080Z,16.28
2018-05-03T11:28:19.057Z,16.30
2018-05-03T11:29:19.094Z,16.11
2018-05-03T11:30:19.064Z,15.86
2018-05-03T11:31:19.058Z,15.74
2018-05-03T11:32:19.029Z,15.75
2018-05-03T11:33:19.043Z,15.84
2018-05-03T11:34:19.087Z,15.86
2018-05-03T11:35:19.015Z,15.92
2018-05-03T11:36:19.024Z,16.11
2018-05-03T11:37:19.025Z,16.17
2018-05-03T11:38:19.011Z,16.24
2018-05-03T11:39:18.991Z,16.14
2018-05-03T11:40:19.120Z,16.00
2018-05-03T11:41:18.995Z,15.94
2018-05-03T11:42:18.969Z,15.86
2018-05-03T11:43:18.992Z,15.94
2018-05-03T11:44:19.680Z,15.87
2018-05-03T11:45:18.963Z,15.87
2018-05-03T11:46:19.118Z,15.86
2018-05-03T11:47:18.954Z,15.93
2018-05-03T11:48:18.942Z,15.92
2018-05-03T11:49:18.937Z,15.89
2018-05-03T11:50:18.913Z,15.76
2018-05-03T11:51:18.916Z,15.69
2018-05-03T11:52:18.942Z,15.60
2018-05-03T11:53:18.917Z,15.60
2018-05-03T11:54:18.888Z,15.44
2018-05-03T11:55:18.895Z,15.35
2018-05-03T11:56:18.900Z,15.32
2018-05-03T11:57:18.938Z,15.20
2018-05-03T11:58:18.881Z,15.19
2018-05-03T11:59:18.937Z,15.28
2018-05-03T12:00:18.877Z,15.19
2018-05-03T12:01:18.883Z,15.11
2018-05-03T12:02:18.861Z,15.25
2018-05-03T12:03:20.656Z,15.14
2018-05-03T12:04:18.823Z,15.27
2018-05-03T12:05:18.816Z,15.17
2018-05-03T12:06:18.855Z,15.29
2018-05-03T12:07:18.824Z,15.27
2018-05-03T12:08:18.822Z,15.29
2018-05-03T12:09:18.854Z,15.14
2018-05-03T12:10:18.809Z,15.17
2018-05-03T12:11:18.795Z,15.21
2018-05-03T12:12:18.783Z,15.36
2018-05-03T12:13:18.769Z,15.39
2018-05-03T12:14:18.775Z,15.51
2018-05-03T12:15:18.812Z,15.51
2018-05-03T12:16:18.754Z,15.46
2018-05-03T12:17:18.743Z,15.35
2018-05-03T12:18:18.734Z,15.23
2018-05-03T12:19:18.724Z,15.19
2018-05-03T12:20:18.737Z,15.20
2018-05-03T12:21:18.716Z,15.10
2018-05-03T12:22:18.698Z,15.20
2018-05-03T12:23:18.691Z,15.21
2018-05-03T12:24:18.723Z,15.28
2018-05-03T12:25:18.665Z,15.38
2018-05-03T12:26:19.249Z,15.50
2018-05-03T12:27:18.658Z,15.51
2018-05-03T12:28:18.644Z,15.35
2018-05-03T12:29:18.644Z,15.32
2018-05-03T12:30:18.675Z,15.27
2018-05-03T12:31:18.717Z,15.36
2018-05-03T12:32:18.636Z,15.36
2018-05-03T12:33:18.617Z,15.38
2018-05-03T12:34:18.607Z,15.50
2018-05-03T12:35:18.612Z,15.44
2018-05-03T12:36:18.625Z,15.49
2018-05-03T12:37:18.608Z,15.60
2018-05-03T12:38:18.571Z,15.64
2018-05-03T12:39:18.701Z,15.71
2018-05-03T12:40:18.568Z,15.64
2018-05-03T12:41:18.555Z,15.60
2018-05-03T12:42:18.541Z,15.67
2018-05-03T12:43:18.553Z,15.60
2018-05-03T12:44:18.519Z,15.50
2018-05-03T12:45:18.558Z,15.31
2018-05-03T12:46:18.508Z,15.32
2018-05-03T12:47:18.511Z,15.31
2018-05-03T12:48:18.506Z,15.51
2018-05-03T12:49:18.488Z,15.41
2018-05-03T12:50:18.620Z,15.35
2018-05-03T12:51:18.470Z,15.41
2018-05-03T12:52:18.473Z,15.32
2018-05-03T12:53:18.465Z,15.17
2018-05-03T12:54:18.478Z,15.16